createdAt,value
2022-10-17T00:00:33.050Z,14.36
2022-10-17T00:01:05.905Z,15.45
2022-10-17T00:01:38.340Z,16.67
2022-10-17T00:02:13.712Z,15.27
2022-10-17T00:02:46.156Z,15.65
2022-10-17T00:03:18.741Z,14.96
2022-10-17T00:03:51.261Z,14.98
2022-10-17T00:04:25.981Z,14.65
2022-10-17T00:05:01.543Z,15.08
2022-10-17T00:05:36.558Z,13.92
2022-10-17T00:06:12.900Z,13.27
2022-10-17T00:06:45.294Z,15.24
2022-10-17T00:07:17.538Z,15.66
2022-10-17T00:07:49.785Z,15.40
2022-10-17T00:08:22.312Z,15.18
2022-10-17T00:08:54.919Z,13.76
2022-10-17T00:09:27.725Z,13.68
2022-10-17T00:10:00.422Z,14.04
2022-10-17T00:10:34.084Z,14.02
2022-10-17T00:11:07.849Z,13.57
2022-10-17T00:11:40.517Z,13.82
2022-10-17T00:12:15.725Z,13.10
2022-10-17T00:12:48.241Z,13.07
2022-10-17T00:13:24.082Z,14.60
2022-10-17T00:13:58.829Z,13.82
2022-10-17T00:14:31.384Z,14.85
2022-10-17T00:15:05.202Z,14.52
2022-10-17T00:15:38.115Z,14.50
2022-10-17T00:16:10.746Z,15.88
2022-10-17T00:16:43.352Z,14.95
2022-10-17T00:17:19.073Z,15.77
2022-10-17T00:17:54.502Z,15.88
2022-10-17T00:18:26.915Z,15.68
2022-10-17T00:18:59.787Z,15.43
2022-10-17T00:19:32.163Z,15.40
2022-10-17T00:20:04.787Z,15.23
2022-10-17T00:20:38.159Z,14.63
2022-10-17T00:21:20.860Z,13.73
2022-10-17T00:21:56.027Z,13.60
2022-10-17T00:22:31.174Z,13.73
2022-10-17T00:23:04.007Z,13.55
2022-10-17T00:23:38.648Z,13.18
2022-10-17T00:24:12.977Z,14.05
2022-10-17T00:24:45.527Z,14.70
2022-10-17T00:25:18.316Z,15.45
2022-10-17T00:26:00.532Z,14.55
2022-10-17T00:26:33.088Z,14.07
2022-10-17T00:27:05.699Z,15.40
2022-10-17T00:27:40.567Z,14.02
2022-10-17T00:28:15.261Z,15.20
2022-10-17T00:28:49.408Z,14.48
2022-10-17T00:29:22.028Z,14.14
2022-10-17T00:29:54.689Z,14.95
2022-10-17T00:30:27.661Z,14.98
2022-10-17T00:31:01.055Z,15.27
2022-10-17T00:31:33.868Z,14.44
2022-10-17T00:32:09.715Z,14.06
2022-10-17T00:32:42.360Z,14.66
2022-10-17T00:33:15.249Z,13.32
2022-10-17T00:33:48.348Z,14.90
2022-10-17T00:34:29.949Z,14.00
2022-10-17T00:35:03.635Z,12.18
2022-10-17T00:35:36.151Z,13.78
2022-10-17T00:36:14.160Z,14.00
2022-10-17T00:36:46.679Z,14.68
2022-10-17T00:37:19.294Z,13.56
2022-10-17T00:37:51.905Z,13.76
2022-10-17T00:38:24.617Z,13.98
2022-10-17T00:39:00.274Z,13.60
2022-10-17T00:39:33.805Z,13.76
2022-10-17T00:40:07.281Z,14.52
2022-10-17T00:40:40.337Z,14.04
2022-10-17T00:41:18.686Z,15.46
2022-10-17T00:41:51.604Z,14.14
2022-10-17T00:42:27.525Z,15.15
2022-10-17T00:43:06.935Z,13.63
2022-10-17T00:44:09.153Z,14.20
2022-10-17T00:44:43.230Z,12.30
2022-10-17T00:45:17.428Z,12.82
2022-10-17T00:45:55.940Z,14.18
2022-10-17T00:46:35.531Z,12.82
2022-10-17T00:47:11.660Z,13.82
2022-10-17T00:47:46.645Z,14.26
2022-10-17T00:48:32.370Z,14.70
2022-10-17T00:49:07.150Z,13.27
2022-10-17T00:49:45.532Z,12.62
2022-10-17T00:50:18.665Z,13.40
2022-10-17T00:50:53.987Z,14.20
2022-10-17T00:51:30.237Z,13.35
2022-10-17T00:52:04.976Z,12.58
2022-10-17T00:52:37.433Z,13.36
2022-10-17T00:53:10.977Z,12.94
2022-10-17T00:53:52.528Z,13.62
2022-10-17T00:54:27.463Z,13.80
2022-10-17T00:55:20.407Z,12.57
2022-10-17T00:55:54.290Z,12.70
2022-10-17T00:56:30.352Z,12.30
2022-10-17T00:57:04.770Z,13.12
2022-10-17T00:57:40.134Z,12.54
2022-10-17T00:58:12.666Z,13.02
2022-10-17T00:58:48.054Z,12.58
2022-10-17T00:59:22.484Z,13.00
2022-10-17T00:59:56.773Z,13.48
2022-10-17T01:00:29.714Z,14.12
2022-10-17T01:01:04.139Z,14.18
2022-10-17T01:01:37.522Z,13.60
2022-10-17T01:02:14.897Z,14.58
2022-10-17T01:02:48.436Z,14.36
2022-10-17T01:03:23.209Z,14.26
2022-10-17T01:03:57.182Z,13.92
2022-10-17T01:04:29.665Z,13.16
2022-10-17T01:05:02.100Z,13.92
2022-10-17T01:05:35.155Z,12.90
2022-10-17T01:06:09.084Z,13.96
2022-10-17T01:06:45.931Z,12.74
2022-10-17T01:07:18.427Z,12.40
2022-10-17T01:07:52.288Z,13.20
2022-10-17T01:08:28.717Z,14.72
2022-10-17T01:09:01.687Z,11.95
2022-10-17T01:09:36.945Z,14.25
2022-10-17T01:10:10.696Z,13.26
2022-10-17T01:10:44.317Z,13.75
2022-10-17T01:11:19.393Z,12.50
2022-10-17T01:11:54.990Z,13.77
2022-10-17T01:12:42.308Z,13.14
2022-10-17T01:13:34.942Z,13.70
2022-10-17T01:14:27.394Z,10.90
2022-10-17T01:15:09.597Z,13.18
2022-10-17T01:16:12.857Z,12.44
2022-10-17T01:16:54.354Z,12.48
2022-10-17T01:17:35.014Z,11.62
2022-10-17T01:18:16.497Z,10.90
2022-10-17T01:18:54.820Z,12.68
2022-10-17T01:19:36.285Z,12.86
2022-10-17T01:20:26.696Z,12.32
2022-10-17T01:21:17.953Z,11.80
2022-10-17T01:22:00.381Z,11.68
2022-10-17T01:22:58.680Z,12.02
2022-10-17T01:23:31.937Z,11.54
2022-10-17T01:24:13.373Z,12.86
2022-10-17T01:24:50.530Z,12.84
2022-10-17T01:25:23.702Z,11.70
2022-10-17T01:26:02.126Z,12.16
2022-10-17T01:26:37.625Z,11.62
2022-10-17T01:27:28.831Z,11.64
2022-10-17T01:28:01.811Z,11.30
2022-10-17T01:28:34.889Z,11.22
2022-10-17T01:29:22.578Z,11.76
2022-10-17T01:30:03.625Z,11.70
2022-10-17T01:30:41.071Z,10.44
2022-10-17T01:31:16.676Z,11.36
2022-10-17T01:31:53.145Z,11.96
2022-10-17T01:32:36.761Z,11.82
2022-10-17T01:33:31.650Z,11.18
2022-10-17T01:34:14.076Z,11.28
2022-10-17T01:34:56.069Z,11.32
2022-10-17T01:35:32.718Z,10.28
2022-10-17T01:36:08.638Z,10.70
2022-10-17T01:36:51.455Z,9.92
2022-10-17T01:37:25.480Z,10.88
2022-10-17T01:38:05.175Z,11.30
2022-10-17T01:38:43.769Z,11.63
2022-10-17T01:39:28.038Z,10.76
2022-10-17T01:40:11.416Z,11.34
2022-10-17T01:40:55.391Z,12.44
2022-10-17T01:41:33.803Z,11.28
2022-10-17T01:42:25.162Z,10.98
2022-10-17T01:43:03.741Z,10.46
2022-10-17T01:43:49.674Z,10.68
2022-10-17T01:44:27.469Z,11.48
2022-10-17T01:45:22.089Z,10.50
2022-10-17T01:45:59.205Z,11.10
2022-10-17T01:46:36.436Z,10.74
2022-10-17T01:47:11.274Z,11.56
2022-10-17T01:47:48.008Z,11.60
2022-10-17T01:48:25.137Z,10.86
2022-10-17T01:49:01.558Z,10.68
2022-10-17T01:49:34.713Z,10.88
2022-10-17T01:50:19.061Z,12.12
2022-10-17T01:50:58.919Z,10.80
2022-10-17T01:51:34.901Z,11.10
2022-10-17T01:52:12.908Z,11.94
2022-10-17T01:52:50.291Z,10.60
2022-10-17T01:53:33.266Z,10.98
2022-10-17T01:54:05.972Z,11.52
2022-10-17T01:54:44.145Z,10.56
2022-10-17T01:55:37.076Z,10.30
2022-10-17T01:56:10.365Z,9.76
2022-10-17T01:56:44.175Z,11.24
2022-10-17T01:57:38.401Z,10.68
2022-10-17T01:58:19.545Z,10.34
2022-10-17T01:59:03.345Z,10.38
2022-10-17T01:59:40.217Z,10.92
2022-10-17T02:00:15.947Z,11.46
2022-10-17T02:00:48.987Z,10.68
2022-10-17T02:01:22.399Z,11.32
2022-10-17T02:01:56.595Z,10.88
2022-10-17T02:02:31.118Z,10.06
2022-10-17T02:03:06.354Z,10.84
2022-10-17T02:03:40.048Z,10.60
2022-10-17T02:04:14.468Z,9.96
2022-10-17T02:04:50.524Z,10.62
2022-10-17T02:05:25.438Z,9.62
2022-10-17T02:06:00.014Z,10.96
2022-10-17T02:06:35.674Z,9.78
2022-10-17T02:07:09.377Z,10.70
2022-10-17T02:07:42.748Z,10.70
2022-10-17T02:08:25.164Z,9.66
2022-10-17T02:08:57.642Z,11.08
2022-10-17T02:09:30.477Z,10.94
2022-10-17T02:10:09.523Z,10.16
2022-10-17T02:10:52.642Z,10.64
2022-10-17T02:11:31.160Z,11.00
2022-10-17T02:12:22.058Z,10.28
2022-10-17T02:13:00.088Z,11.14
2022-10-17T02:13:35.161Z,11.04
2022-10-17T02:14:26.225Z,11.04
2022-10-17T02:15:17.346Z,10.48
2022-10-17T02:16:13.364Z,9.54
2022-10-17T02:16:54.825Z,10.46
2022-10-17T02:17:45.622Z,9.92
2022-10-17T02:18:21.005Z,11.18
2022-10-17T02:18:59.535Z,9.56
2022-10-17T02:19:50.925Z,10.64
2022-10-17T02:20:31.811Z,10.26
2022-10-17T02:21:24.677Z,11.32
2022-10-17T02:22:04.582Z,10.00
2022-10-17T02:22:41.144Z,11.20
2022-10-17T02:23:21.109Z,11.64
2022-10-17T02:23:56.188Z,10.98
2022-10-17T02:24:47.370Z,11.06
2022-10-17T02:25:39.031Z,10.30
2022-10-17T02:26:25.509Z,10.90
2022-10-17T02:27:12.277Z,9.32
2022-10-17T02:28:01.134Z,11.12
2022-10-17T02:28:36.546Z,11.78
2022-10-17T02:29:21.501Z,11.78
2022-10-17T02:30:15.966Z,11.28
2022-10-17T02:31:14.680Z,11.60
2022-10-17T02:31:55.784Z,11.72
2022-10-17T02:32:37.325Z,11.60
2022-10-17T02:33:19.271Z,9.96
2022-10-17T02:34:24.138Z,11.40
2022-10-17T02:34:57.312Z,10.06
2022-10-17T02:35:36.072Z,12.08
2022-10-17T02:36:14.355Z,11.78
2022-10-17T02:36:49.150Z,10.22
2022-10-17T02:37:24.422Z,10.82
2022-10-17T02:37:57.505Z,11.86
2022-10-17T02:38:30.999Z,11.06
2022-10-17T02:39:04.545Z,11.22
2022-10-17T02:39:38.676Z,11.62
2022-10-17T02:40:12.341Z,12.16
2022-10-17T02:40:46.120Z,11.58
2022-10-17T02:41:19.675Z,11.06
2022-10-17T02:41:56.084Z,12.18
2022-10-17T02:42:31.489Z,11.40
2022-10-17T02:43:06.901Z,12.38
2022-10-17T02:43:40.924Z,10.40
2022-10-17T02:44:13.436Z,11.44
2022-10-17T02:44:46.851Z,13.18
2022-10-17T02:45:20.885Z,12.82
2022-10-17T02:45:54.250Z,11.84
2022-10-17T02:46:27.707Z,11.76
2022-10-17T02:47:04.464Z,12.32
2022-10-17T02:47:44.055Z,12.82
2022-10-17T02:48:22.621Z,12.60
2022-10-17T02:49:03.560Z,11.62
2022-10-17T02:49:38.089Z,13.16
2022-10-17T02:50:10.943Z,11.10
2022-10-17T02:50:50.674Z,13.26
2022-10-17T02:51:41.708Z,12.72
2022-10-17T02:52:23.445Z,12.44
2022-10-17T02:53:00.549Z,11.28
2022-10-17T02:54:05.271Z,12.22
2022-10-17T02:54:47.971Z,12.52
2022-10-17T02:55:24.601Z,12.30
2022-10-17T02:55:59.351Z,11.94
2022-10-17T02:56:35.345Z,11.70
2022-10-17T02:57:26.320Z,12.66
2022-10-17T02:58:04.441Z,12.40
2022-10-17T02:58:38.698Z,12.80
2022-10-17T02:59:12.825Z,12.70
2022-10-17T02:59:47.677Z,12.72
2022-10-17T03:00:21.483Z,12.68
2022-10-17T03:00:54.111Z,12.38
2022-10-17T03:01:29.952Z,12.90
2022-10-17T03:02:08.296Z,13.50
2022-10-17T03:02:41.925Z,12.86
2022-10-17T03:03:22.462Z,12.00
2022-10-17T03:04:14.026Z,12.88
2022-10-17T03:04:50.889Z,11.72
2022-10-17T03:05:27.742Z,12.64
2022-10-17T03:06:00.121Z,11.50
2022-10-17T03:06:32.748Z,12.92
2022-10-17T03:07:05.918Z,13.70
2022-10-17T03:07:39.318Z,12.46
2022-10-17T03:08:12.333Z,11.98
2022-10-17T03:08:44.892Z,12.68
2022-10-17T03:09:17.528Z,13.04
2022-10-17T03:09:55.619Z,13.26
2022-10-17T03:10:28.230Z,14.04
2022-10-17T03:11:00.769Z,12.84
2022-10-17T03:11:33.902Z,13.48
2022-10-17T03:12:06.722Z,13.22
2022-10-17T03:12:39.989Z,12.60
2022-10-17T03:13:13.837Z,11.62
2022-10-17T03:13:46.957Z,13.18
2022-10-17T03:14:19.635Z,13.66
2022-10-17T03:14:52.424Z,13.12
2022-10-17T03:15:28.130Z,12.82
2022-10-17T03:16:00.941Z,13.52
2022-10-17T03:16:36.429Z,13.24
2022-10-17T03:17:12.861Z,13.28
2022-10-17T03:18:24.066Z,13.88
2022-10-17T03:19:00.905Z,12.58
2022-10-17T03:19:33.485Z,14.26
2022-10-17T03:20:06.616Z,13.54
2022-10-17T03:20:41.859Z,12.44
2022-10-17T03:21:14.564Z,12.68
2022-10-17T03:21:47.664Z,13.64
2022-10-17T03:22:23.103Z,12.20
2022-10-17T03:22:55.853Z,13.78
2022-10-17T03:23:31.134Z,13.76
2022-10-17T03:24:04.236Z,13.32
2022-10-17T03:24:39.715Z,11.98
2022-10-17T03:25:12.501Z,14.00
2022-10-17T03:25:45.079Z,14.06
2022-10-17T03:26:20.639Z,12.76
2022-10-17T03:26:53.361Z,13.90
2022-10-17T03:27:26.630Z,13.86
2022-10-17T03:28:00.483Z,12.96
2022-10-17T03:28:33.253Z,13.14
2022-10-17T03:29:05.732Z,13.88
2022-10-17T03:29:39.139Z,13.68
2022-10-17T03:30:13.742Z,12.92
2022-10-17T03:30:46.046Z,13.68
2022-10-17T03:31:19.031Z,14.36
2022-10-17T03:31:52.386Z,13.38
2022-10-17T03:32:24.877Z,13.76
2022-10-17T03:33:00.351Z,13.38
2022-10-17T03:33:32.813Z,12.56
2022-10-17T03:34:05.227Z,13.00
2022-10-17T03:34:37.927Z,12.10
2022-10-17T03:35:14.781Z,13.28
2022-10-17T03:36:27.717Z,13.98
2022-10-17T03:37:00.791Z,12.32
2022-10-17T03:37:34.743Z,14.12
2022-10-17T03:38:07.327Z,13.98
2022-10-17T03:38:39.941Z,12.52
2022-10-17T03:39:13.228Z,13.92
2022-10-17T03:39:45.499Z,13.96
2022-10-17T03:40:18.862Z,14.00
2022-10-17T03:40:57.126Z,13.24
2022-10-17T03:41:29.486Z,13.32
2022-10-17T03:42:01.791Z,13.30
2022-10-17T03:42:34.053Z,11.90
2022-10-17T03:43:06.423Z,13.22
2022-10-17T03:43:39.811Z,13.96
2022-10-17T03:44:12.394Z,13.00
2022-10-17T03:44:45.018Z,14.66
2022-10-17T03:45:17.360Z,13.16
2022-10-17T03:45:51.295Z,14.74
2022-10-17T03:46:23.744Z,13.38
2022-10-17T03:46:56.306Z,12.60
2022-10-17T03:47:29.311Z,14.04
2022-10-17T03:48:02.202Z,13.76
2022-10-17T03:48:35.669Z,14.16
2022-10-17T03:49:10.270Z,12.46
2022-10-17T03:49:42.673Z,13.92
2022-10-17T03:50:15.292Z,13.16
2022-10-17T03:50:48.546Z,13.84
2022-10-17T03:51:21.565Z,13.82
2022-10-17T03:51:59.426Z,13.48
2022-10-17T03:52:33.155Z,14.30
2022-10-17T03:53:06.790Z,12.32
2022-10-17T03:53:39.610Z,13.60
2022-10-17T03:54:12.171Z,13.58
2022-10-17T03:54:45.071Z,13.70
2022-10-17T03:55:17.758Z,15.60
2022-10-17T03:55:50.118Z,13.06
2022-10-17T03:56:24.299Z,12.92
2022-10-17T03:57:05.327Z,12.64
2022-10-17T03:57:40.144Z,13.80
2022-10-17T03:58:15.272Z,13.48
2022-10-17T03:58:47.903Z,13.34
2022-10-17T03:59:21.198Z,14.36
2022-10-17T04:00:05.563Z,13.80
2022-10-17T04:00:46.380Z,12.36
2022-10-17T04:01:19.641Z,14.36
2022-10-17T04:01:51.995Z,13.94
2022-10-17T04:02:25.283Z,14.12
2022-10-17T04:02:58.430Z,13.86
2022-10-17T04:03:32.509Z,13.30
2022-10-17T04:04:05.026Z,13.92
2022-10-17T04:04:40.156Z,13.96
2022-10-17T04:05:12.803Z,14.42
2022-10-17T04:05:46.613Z,13.20
2022-10-17T04:06:19.233Z,14.12
2022-10-17T04:06:51.924Z,13.46
2022-10-17T04:08:04.838Z,12.74
2022-10-17T04:09:15.941Z,13.26
2022-10-17T04:10:13.377Z,12.62
2022-10-17T04:10:46.190Z,12.98
2022-10-17T04:11:19.872Z,12.82
2022-10-17T04:11:53.110Z,12.86
2022-10-17T04:12:27.371Z,13.72
2022-10-17T04:13:00.093Z,12.88
2022-10-17T04:13:32.761Z,13.80
2022-10-17T04:14:05.124Z,14.18
2022-10-17T04:14:38.105Z,13.08
2022-10-17T04:15:10.669Z,13.68
2022-10-17T04:15:43.789Z,13.70
2022-10-17T04:16:17.646Z,13.36
2022-10-17T04:17:02.921Z,13.98
2022-10-17T04:17:38.137Z,12.08
2022-10-17T04:18:11.490Z,12.78
2022-10-17T04:18:44.129Z,12.50
2022-10-17T04:19:16.808Z,13.22
2022-10-17T04:19:51.746Z,12.80
2022-10-17T04:20:25.458Z,12.62
2022-10-17T04:20:58.034Z,13.32
2022-10-17T04:21:31.096Z,11.86
2022-10-17T04:22:08.679Z,13.06
2022-10-17T04:22:43.652Z,12.60
2022-10-17T04:23:16.414Z,13.56
2022-10-17T04:23:48.815Z,12.40
2022-10-17T04:24:34.961Z,12.26
2022-10-17T04:25:15.707Z,13.76
2022-10-17T04:25:51.171Z,12.48
2022-10-17T04:26:23.750Z,12.92
2022-10-17T04:26:56.503Z,13.70
2022-10-17T04:27:32.556Z,12.78
2022-10-17T04:28:05.429Z,12.92
2022-10-17T04:29:15.478Z,12.64
2022-10-17T04:29:49.655Z,14.12
2022-10-17T04:30:26.620Z,12.56
2022-10-17T04:30:59.882Z,12.58
2022-10-17T04:31:36.872Z,13.10
2022-10-17T04:32:18.581Z,12.28
2022-10-17T04:32:59.218Z,12.80
2022-10-17T04:33:33.795Z,12.10
2022-10-17T04:34:06.600Z,13.18
2022-10-17T04:34:39.204Z,13.12
2022-10-17T04:35:11.685Z,12.86
2022-10-17T04:35:55.187Z,12.98
2022-10-17T04:36:27.714Z,13.32
2022-10-17T04:37:00.159Z,12.24
2022-10-17T04:37:33.175Z,12.98
2022-10-17T04:38:08.496Z,13.06
2022-10-17T04:38:41.042Z,11.94
2022-10-17T04:39:16.037Z,13.54
2022-10-17T04:39:48.652Z,11.82
2022-10-17T04:40:21.469Z,12.08
2022-10-17T04:41:04.014Z,12.64
2022-10-17T04:42:08.625Z,12.80
2022-10-17T04:42:41.141Z,12.16
2022-10-17T04:43:15.222Z,11.26
2022-10-17T04:43:50.976Z,11.20
2022-10-17T04:44:25.402Z,11.64
2022-10-17T04:44:58.440Z,11.72
2022-10-17T04:45:32.553Z,12.96
2022-10-17T04:46:12.453Z,12.14
2022-10-17T04:46:44.876Z,12.22
2022-10-17T04:47:17.694Z,12.04
2022-10-17T04:47:50.252Z,11.54
2022-10-17T04:48:22.721Z,12.44
2022-10-17T04:48:55.188Z,12.92
2022-10-17T04:49:27.680Z,11.60
2022-10-17T04:50:05.450Z,11.80
2022-10-17T04:50:39.754Z,11.58
2022-10-17T04:51:32.422Z,11.54
2022-10-17T04:52:16.842Z,11.60
2022-10-17T04:52:51.030Z,11.94
2022-10-17T04:53:24.339Z,11.34
2022-10-17T04:53:56.711Z,12.32
2022-10-17T04:54:29.481Z,12.48
2022-10-17T04:55:41.511Z,11.64
2022-10-17T04:56:19.047Z,12.12
2022-10-17T04:56:51.547Z,12.68
2022-10-17T04:57:25.166Z,13.20
2022-10-17T04:58:05.014Z,11.18
2022-10-17T04:58:38.354Z,12.18
2022-10-17T04:59:11.251Z,11.88
2022-10-17T04:59:45.283Z,12.38
2022-10-17T05:00:24.253Z,12.60
2022-10-17T05:01:11.082Z,11.18
2022-10-17T05:01:45.020Z,13.40
2022-10-17T05:02:18.234Z,11.70
2022-10-17T05:02:52.045Z,12.68
2022-10-17T05:03:25.708Z,12.66
2022-10-17T05:03:58.308Z,13.08
2022-10-17T05:04:30.757Z,11.68
2022-10-17T05:05:03.756Z,11.52
2022-10-17T05:05:40.213Z,11.64
2022-10-17T05:06:13.934Z,12.14
2022-10-17T05:06:47.856Z,12.78
2022-10-17T05:07:42.027Z,10.50
2022-10-17T05:08:18.348Z,11.65
2022-10-17T05:08:50.852Z,11.34
2022-10-17T05:09:25.436Z,11.34
2022-10-17T05:09:59.172Z,13.68
2022-10-17T05:10:36.426Z,12.38
2022-10-17T05:11:19.104Z,12.72
2022-10-17T05:11:51.369Z,12.74
2022-10-17T05:12:24.919Z,12.24
2022-10-17T05:12:57.435Z,12.70
2022-10-17T05:13:34.023Z,12.08
2022-10-17T05:14:07.743Z,12.96
2022-10-17T05:14:40.244Z,11.74
2022-10-17T05:15:12.565Z,12.42
2022-10-17T05:15:46.150Z,13.16
2022-10-17T05:16:18.963Z,12.26
2022-10-17T05:16:52.012Z,12.64
2022-10-17T05:17:24.433Z,12.38
2022-10-17T05:17:57.319Z,12.84
2022-10-17T05:18:31.320Z,12.28
2022-10-17T05:19:04.069Z,12.76
2022-10-17T05:19:42.027Z,13.00
2022-10-17T05:20:14.939Z,12.44
2022-10-17T05:20:47.560Z,11.90
2022-10-17T05:21:21.124Z,11.96
2022-10-17T05:21:53.671Z,12.80
2022-10-17T05:22:26.119Z,12.80
2022-10-17T05:23:01.769Z,12.54
2022-10-17T05:23:39.384Z,11.94
2022-10-17T05:24:14.346Z,12.46
2022-10-17T05:24:46.698Z,13.86
2022-10-17T05:25:19.611Z,14.12
2022-10-17T05:25:56.015Z,12.26
2022-10-17T05:26:29.735Z,13.98
2022-10-17T05:27:02.324Z,13.16
2022-10-17T05:27:34.968Z,11.52
2022-10-17T05:28:07.443Z,11.82
2022-10-17T05:28:40.164Z,13.48
2022-10-17T05:29:13.086Z,11.98
2022-10-17T05:29:50.643Z,12.40
2022-10-17T05:30:31.477Z,13.00
2022-10-17T05:31:07.853Z,13.52
2022-10-17T05:31:41.259Z,13.46
2022-10-17T05:32:15.343Z,13.48
2022-10-17T05:32:48.182Z,12.74
2022-10-17T05:33:20.884Z,13.60
2022-10-17T05:33:53.458Z,12.26
2022-10-17T05:34:25.973Z,13.42
2022-10-17T05:34:58.293Z,13.74
2022-10-17T05:35:31.589Z,12.44
2022-10-17T05:36:04.502Z,13.82
2022-10-17T05:36:37.623Z,13.86
2022-10-17T05:37:10.787Z,13.84
2022-10-17T05:37:43.815Z,13.06
2022-10-17T05:38:16.134Z,14.42
2022-10-17T05:38:52.739Z,13.12
2022-10-17T05:39:25.113Z,13.26
2022-10-17T05:39:58.062Z,13.02
2022-10-17T05:40:31.466Z,13.54
2022-10-17T05:41:05.716Z,12.78
2022-10-17T05:41:38.603Z,13.46
2022-10-17T05:42:11.259Z,13.18
2022-10-17T05:42:49.378Z,13.38
2022-10-17T05:43:23.986Z,13.46
2022-10-17T05:43:56.793Z,13.58
2022-10-17T05:44:50.819Z,14.22
2022-10-17T05:45:25.283Z,13.26
2022-10-17T05:45:57.995Z,13.94
2022-10-17T05:46:30.555Z,12.98
2022-10-17T05:47:02.948Z,13.92
2022-10-17T05:47:35.259Z,13.16
2022-10-17T05:48:09.395Z,11.52
2022-10-17T05:48:41.803Z,13.02
2022-10-17T05:49:19.721Z,13.74
2022-10-17T05:50:05.414Z,13.04
2022-10-17T05:50:49.886Z,13.00
2022-10-17T05:51:22.925Z,14.06
2022-10-17T05:51:55.668Z,14.50
2022-10-17T05:52:28.489Z,14.20
2022-10-17T05:53:17.494Z,13.68
2022-10-17T05:53:53.525Z,13.52
2022-10-17T05:54:30.296Z,13.68
2022-10-17T05:55:03.078Z,14.00
2022-10-17T05:55:35.417Z,14.42
2022-10-17T05:56:09.012Z,13.74
2022-10-17T05:56:42.248Z,14.50
2022-10-17T05:57:14.727Z,14.32
2022-10-17T05:57:47.205Z,13.06
2022-10-17T05:58:45.521Z,14.54
2022-10-17T05:59:20.871Z,13.18
2022-10-17T06:00:01.228Z,13.92
2022-10-17T06:01:24.781Z,14.12
2022-10-17T06:01:57.298Z,13.64
2022-10-17T06:02:30.181Z,13.62
2022-10-17T06:03:02.899Z,14.28
2022-10-17T06:03:35.528Z,14.86
2022-10-17T06:04:10.947Z,15.16
2022-10-17T06:04:46.252Z,15.24
2022-10-17T06:05:19.955Z,13.88
2022-10-17T06:05:52.926Z,13.22
2022-10-17T06:06:26.064Z,14.58
2022-10-17T06:06:58.943Z,13.80
2022-10-17T06:07:31.463Z,14.16
2022-10-17T06:08:03.820Z,14.14
2022-10-17T06:08:39.993Z,13.20
2022-10-17T06:09:14.456Z,12.50
2022-10-17T06:09:50.205Z,13.94
2022-10-17T06:10:22.714Z,14.24
2022-10-17T06:10:55.307Z,14.18
2022-10-17T06:11:27.816Z,13.88
2022-10-17T06:12:00.147Z,13.82
2022-10-17T06:12:32.815Z,13.52
2022-10-17T06:13:05.462Z,14.02
2022-10-17T06:13:39.982Z,14.94
2022-10-17T06:14:18.332Z,13.72
2022-10-17T06:14:50.761Z,13.46
2022-10-17T06:15:23.106Z,14.82
2022-10-17T06:16:01.941Z,13.02
2022-10-17T06:16:34.419Z,13.34
2022-10-17T06:17:10.944Z,12.74
2022-10-17T06:17:46.110Z,13.52
2022-10-17T06:18:18.428Z,14.00
2022-10-17T06:18:50.688Z,14.28
2022-10-17T06:19:23.232Z,12.98
2022-10-17T06:19:55.620Z,13.02
2022-10-17T06:20:29.935Z,15.60
2022-10-17T06:21:03.923Z,13.92
2022-10-17T06:21:38.984Z,13.92
2022-10-17T06:22:19.873Z,15.02
2022-10-17T06:22:52.732Z,14.34
2022-10-17T06:23:36.159Z,14.34
2022-10-17T06:24:20.625Z,12.68
2022-10-17T06:24:54.016Z,14.78
2022-10-17T06:25:26.410Z,12.78
2022-10-17T06:26:00.094Z,13.64
2022-10-17T06:26:32.566Z,15.12
2022-10-17T06:27:09.341Z,14.70
2022-10-17T06:27:44.438Z,13.27
2022-10-17T06:28:17.580Z,14.66
2022-10-17T06:28:49.912Z,13.82
2022-10-17T06:29:22.311Z,14.60
2022-10-17T06:29:57.126Z,14.36
2022-10-17T06:30:29.827Z,14.68
2022-10-17T06:31:08.836Z,13.40
2022-10-17T06:31:41.485Z,14.77
2022-10-17T06:32:15.188Z,13.68
2022-10-17T06:32:58.914Z,14.22
2022-10-17T06:33:31.725Z,14.24
2022-10-17T06:34:04.207Z,12.92
2022-10-17T06:34:36.697Z,14.68
2022-10-17T06:35:09.552Z,14.30
2022-10-17T06:35:42.257Z,13.30
2022-10-17T06:36:15.118Z,13.38
2022-10-17T06:36:48.476Z,14.42
2022-10-17T06:37:22.798Z,13.52
2022-10-17T06:37:55.171Z,14.22
2022-10-17T06:38:27.726Z,13.78
2022-10-17T06:39:02.633Z,14.12
2022-10-17T06:39:53.588Z,13.70
2022-10-17T06:40:28.097Z,14.06
2022-10-17T06:41:10.266Z,13.12
2022-10-17T06:41:44.806Z,14.24
2022-10-17T06:42:17.657Z,13.80
2022-10-17T06:43:09.146Z,14.64
2022-10-17T06:44:09.903Z,12.88
2022-10-17T06:44:42.379Z,13.04
2022-10-17T06:45:33.441Z,13.36
2022-10-17T06:46:22.719Z,12.45
2022-10-17T06:47:02.053Z,14.52
2022-10-17T06:47:35.019Z,13.76
2022-10-17T06:48:14.362Z,13.95
2022-10-17T06:48:57.107Z,13.28
2022-10-17T06:49:46.007Z,12.88
2022-10-17T06:50:30.315Z,13.66
2022-10-17T06:51:37.987Z,13.04
2022-10-17T06:52:13.507Z,13.22
2022-10-17T06:52:54.420Z,14.20
2022-10-17T06:54:05.323Z,14.42
2022-10-17T06:55:14.151Z,12.96
2022-10-17T06:56:08.147Z,13.64
2022-10-17T06:56:52.872Z,12.68
2022-10-17T06:57:56.689Z,13.38
2022-10-17T06:59:07.695Z,13.40
2022-10-17T06:59:41.916Z,12.16
2022-10-17T07:00:17.648Z,12.75
2022-10-17T07:01:15.429Z,13.22
2022-10-17T07:01:49.218Z,12.70
2022-10-17T07:02:23.975Z,14.44
2022-10-17T07:02:57.305Z,13.30
2022-10-17T07:03:30.349Z,13.76
2022-10-17T07:04:02.866Z,13.68
2022-10-17T07:04:36.746Z,13.32
2022-10-17T07:05:09.407Z,12.78
2022-10-17T07:05:41.803Z,13.44
2022-10-17T07:06:14.498Z,15.30
2022-10-17T07:06:48.252Z,13.62
2022-10-17T07:07:23.859Z,14.30
2022-10-17T07:07:58.152Z,14.50
2022-10-17T07:08:30.817Z,14.32
2022-10-17T07:09:07.180Z,13.43
2022-10-17T07:09:42.106Z,14.30
2022-10-17T07:10:14.969Z,15.62
2022-10-17T07:10:47.764Z,13.38
2022-10-17T07:11:20.956Z,13.85
2022-10-17T07:11:55.628Z,13.90
2022-10-17T07:12:27.976Z,12.82
2022-10-17T07:13:00.679Z,13.50
2022-10-17T07:13:38.144Z,14.82
2022-10-17T07:14:11.393Z,14.32
2022-10-17T07:14:43.898Z,14.07
2022-10-17T07:15:16.336Z,14.90
2022-10-17T07:15:48.751Z,13.20
2022-10-17T07:16:22.589Z,13.32
2022-10-17T07:17:06.490Z,12.68
2022-10-17T07:17:38.784Z,13.40
2022-10-17T07:18:11.899Z,13.20
2022-10-17T07:18:44.947Z,13.68
2022-10-17T07:19:17.615Z,12.45
2022-10-17T07:19:50.107Z,13.63
2022-10-17T07:20:22.645Z,13.40
2022-10-17T07:20:55.231Z,12.80
2022-10-17T07:21:27.754Z,13.77
2022-10-17T07:22:00.094Z,11.90
2022-10-17T07:22:32.929Z,11.73
2022-10-17T07:23:05.388Z,12.38
2022-10-17T07:23:37.958Z,12.05
2022-10-17T07:24:10.247Z,10.75
2022-10-17T07:24:44.251Z,12.18
2022-10-17T07:25:45.610Z,11.60
2022-10-17T07:26:18.725Z,10.90
2022-10-17T07:26:52.196Z,11.98
2022-10-17T07:27:25.641Z,12.35
2022-10-17T07:27:58.236Z,11.52
2022-10-17T07:28:30.849Z,10.90
2022-10-17T07:29:07.969Z,11.57
2022-10-17T07:29:47.716Z,11.32
2022-10-17T07:30:25.125Z,10.63
2022-10-17T07:31:18.648Z,10.20
2022-10-17T07:31:52.174Z,10.55
2022-10-17T07:32:24.751Z,10.38
2022-10-17T07:32:57.500Z,11.73
2022-10-17T07:33:30.339Z,10.80
2022-10-17T07:34:02.810Z,11.57
2022-10-17T07:34:36.284Z,10.88
2022-10-17T07:35:09.665Z,10.88
2022-10-17T07:35:42.126Z,11.00
2022-10-17T07:36:16.336Z,11.48
2022-10-17T07:36:48.952Z,11.80
2022-10-17T07:37:21.715Z,11.00
2022-10-17T07:37:59.233Z,10.43
2022-10-17T07:38:32.404Z,10.57
2022-10-17T07:39:04.871Z,11.38
2022-10-17T07:39:40.122Z,11.23
2022-10-17T07:40:12.684Z,10.98
2022-10-17T07:40:45.274Z,11.15
2022-10-17T07:41:21.809Z,11.60
2022-10-17T07:41:55.602Z,10.52
2022-10-17T07:42:29.157Z,11.10
2022-10-17T07:43:01.662Z,10.95
2022-10-17T07:43:35.089Z,8.93
2022-10-17T07:44:07.910Z,9.68
2022-10-17T07:44:47.710Z,10.52
2022-10-17T07:45:20.353Z,9.48
2022-10-17T07:45:53.349Z,10.50
2022-10-17T07:46:25.807Z,10.18
2022-10-17T07:46:58.347Z,10.20
2022-10-17T07:47:31.953Z,9.35
2022-10-17T07:48:05.573Z,10.43
2022-10-17T07:48:39.969Z,9.52
2022-10-17T07:49:13.335Z,10.65
2022-10-17T07:49:46.879Z,10.52
2022-10-17T07:50:19.303Z,10.90
2022-10-17T07:50:51.947Z,9.82
2022-10-17T07:51:25.403Z,10.77
2022-10-17T07:51:57.841Z,9.73
2022-10-17T07:52:30.975Z,9.60
2022-10-17T07:53:03.483Z,10.65